createdAt,value
2023-05-05T00:01:14.851Z,3.42
2023-05-05T00:04:17.778Z,3.08
2023-05-05T00:07:19.555Z,3.47
2023-05-05T00:10:21.681Z,2.95
2023-05-05T00:13:23.941Z,3.35
2023-05-05T00:16:25.757Z,3.30
2023-05-05T00:19:27.468Z,3.10
2023-05-05T00:22:29.204Z,2.88
2023-05-05T00:25:30.913Z,2.75
2023-05-05T00:28:32.672Z,2.90
2023-05-05T00:31:34.565Z,2.78
2023-05-05T00:34:36.276Z,2.90
2023-05-05T00:37:37.903Z,3.03
2023-05-05T00:40:39.642Z,2.58
2023-05-05T00:43:41.209Z,2.70
2023-05-05T00:46:43.577Z,2.72
2023-05-05T00:49:46.277Z,2.72
2023-05-05T00:52:48.672Z,2.75
2023-05-05T00:55:51.206Z,2.75
2023-05-05T00:58:53.131Z,3.10
2023-05-05T01:01:54.862Z,2.63
2023-05-05T01:04:56.600Z,2.90
2023-05-05T01:08:33.829Z,2.90
2023-05-05T01:12:00.905Z,3.10
2023-05-05T01:15:05.548Z,2.80
2023-05-05T01:18:35.318Z,2.88
2023-05-05T01:22:07.169Z,2.95
2023-05-05T01:25:12.202Z,2.78
2023-05-05T01:28:45.472Z,3.05
2023-05-05T01:31:55.071Z,2.75
2023-05-05T01:34:56.916Z,3.00
2023-05-05T01:38:25.444Z,2.70
2023-05-05T01:41:32.046Z,2.75
2023-05-05T01:44:37.038Z,3.22
2023-05-05T01:47:40.582Z,3.00
2023-05-05T01:50:43.856Z,3.00
2023-05-05T01:53:47.347Z,2.88
2023-05-05T01:56:49.785Z,3.03
2023-05-05T01:59:53.496Z,2.92
2023-05-05T02:02:59.912Z,2.72
2023-05-05T02:06:03.500Z,2.90
2023-05-05T02:09:06.713Z,2.88
2023-05-05T02:12:09.736Z,2.90
2023-05-05T02:15:13.013Z,2.67
2023-05-05T02:18:14.909Z,2.83
2023-05-05T02:21:18.178Z,3.08
2023-05-05T02:24:19.905Z,2.50
2023-05-05T02:27:24.337Z,2.80
2023-05-05T02:30:30.137Z,2.58
2023-05-05T02:33:34.872Z,3.05
2023-05-05T02:36:41.482Z,2.72
2023-05-05T02:39:51.652Z,2.92
2023-05-05T02:42:57.312Z,2.33
2023-05-05T02:46:03.709Z,2.25
2023-05-05T02:49:07.372Z,2.60
2023-05-05T02:52:09.816Z,2.63
2023-05-05T02:55:14.042Z,2.22
2023-05-05T02:58:49.235Z,2.45
2023-05-05T03:01:51.575Z,2.30
2023-05-05T03:05:04.209Z,2.13
2023-05-05T03:08:18.340Z,2.40
2023-05-05T03:11:29.075Z,2.30
2023-05-05T03:14:36.498Z,2.20
2023-05-05T03:17:40.469Z,2.15
2023-05-05T03:20:43.594Z,2.13
2023-05-05T03:23:47.389Z,2.40
2023-05-05T03:26:54.489Z,2.20
2023-05-05T03:29:59.783Z,2.28
2023-05-05T03:33:01.935Z,2.10
2023-05-05T03:36:04.013Z,2.15
2023-05-05T03:39:06.097Z,2.05
2023-05-05T03:42:09.055Z,2.33
2023-05-05T03:45:11.352Z,2.40
2023-05-05T03:48:14.402Z,2.05
2023-05-05T03:51:17.507Z,2.08
2023-05-05T03:54:19.215Z,2.10
2023-05-05T03:57:21.063Z,2.35
2023-05-05T04:00:22.771Z,2.30
2023-05-05T04:03:24.658Z,2.08
2023-05-05T04:06:26.534Z,2.13
2023-05-05T04:09:28.575Z,2.20
2023-05-05T04:12:30.726Z,1.90
2023-05-05T04:15:32.563Z,1.90
2023-05-05T04:18:36.168Z,2.13
2023-05-05T04:21:38.935Z,2.10
2023-05-05T04:24:40.886Z,2.10
2023-05-05T04:27:42.583Z,1.90
2023-05-05T04:30:44.459Z,2.10
2023-05-05T04:33:46.355Z,2.00
2023-05-05T04:36:48.849Z,2.00
2023-05-05T04:39:51.163Z,1.90
2023-05-05T04:42:52.905Z,2.10
2023-05-05T04:45:55.870Z,2.00
2023-05-05T04:49:03.472Z,2.08
2023-05-05T04:52:05.650Z,2.00
2023-05-05T04:55:10.399Z,1.85
2023-05-05T04:58:12.166Z,2.00
2023-05-05T05:01:13.825Z,2.10
2023-05-05T05:04:18.684Z,2.20
2023-05-05T05:07:20.663Z,2.33
2023-05-05T05:10:22.333Z,2.22
2023-05-05T05:13:24.000Z,2.35
2023-05-05T05:16:25.862Z,2.58
2023-05-05T05:19:28.648Z,2.60
2023-05-05T05:22:31.110Z,2.80
2023-05-05T05:25:33.522Z,2.55
2023-05-05T05:28:35.305Z,2.55
2023-05-05T05:31:37.590Z,2.50
2023-05-05T05:34:39.651Z,2.63
2023-05-05T05:37:43.437Z,2.22
2023-05-05T05:40:45.352Z,2.35
2023-05-05T05:43:47.304Z,2.35
2023-05-05T05:46:49.249Z,2.72
2023-05-05T05:49:51.647Z,2.75
2023-05-05T05:52:54.724Z,2.47
2023-05-05T05:55:57.057Z,2.28
2023-05-05T05:58:59.086Z,2.63
2023-05-05T06:02:01.557Z,2.40
2023-05-05T06:05:03.430Z,2.80
2023-05-05T06:08:05.404Z,2.33
2023-05-05T06:11:10.999Z,2.53
2023-05-05T06:14:12.827Z,2.58
2023-05-05T06:17:14.612Z,2.65
2023-05-05T06:20:16.571Z,2.60
2023-05-05T06:23:18.573Z,2.55
2023-05-05T06:26:26.149Z,2.38
2023-05-05T06:29:28.730Z,2.70
2023-05-05T06:32:30.516Z,2.67
2023-05-05T06:35:32.240Z,3.33
2023-05-05T06:38:33.920Z,3.30
2023-05-05T06:41:35.599Z,2.70
2023-05-05T06:44:37.891Z,2.72
2023-05-05T06:47:40.181Z,2.65
2023-05-05T06:50:42.388Z,2.60
2023-05-05T06:53:44.104Z,2.70
2023-05-05T06:56:46.196Z,2.38
2023-05-05T06:59:47.970Z,2.63
2023-05-05T07:02:49.926Z,2.38
2023-05-05T07:05:53.890Z,2.55
2023-05-05T07:08:55.782Z,2.63
2023-05-05T07:11:57.622Z,2.42
2023-05-05T07:14:59.291Z,2.17
2023-05-05T07:18:01.052Z,2.58
2023-05-05T07:21:02.821Z,2.33
2023-05-05T07:24:04.645Z,5.70
2023-05-05T07:27:07.250Z,3.97
2023-05-05T07:30:13.135Z,2.97
2023-05-05T07:33:16.147Z,2.88
2023-05-05T07:36:18.536Z,2.80
2023-05-05T07:39:21.140Z,2.45
2023-05-05T07:42:22.806Z,2.53
2023-05-05T07:45:24.724Z,2.38
2023-05-05T07:48:26.516Z,2.38
2023-05-05T07:51:28.129Z,2.50
2023-05-05T07:54:29.870Z,2.33
2023-05-05T07:57:31.529Z,2.67
2023-05-05T08:00:33.285Z,2.53
2023-05-05T08:03:35.062Z,2.67
2023-05-05T08:06:36.868Z,2.38
2023-05-05T08:09:38.666Z,2.20
2023-05-05T08:12:40.693Z,2.53
2023-05-05T08:15:42.619Z,2.40
2023-05-05T08:18:44.475Z,2.85
2023-05-05T08:21:46.305Z,2.67
2023-05-05T08:24:47.949Z,3.50
2023-05-05T08:27:49.667Z,2.92
2023-05-05T08:30:51.375Z,2.90
2023-05-05T08:33:56.057Z,3.10
2023-05-05T08:36:57.824Z,3.58
2023-05-05T08:39:59.416Z,3.65
2023-05-05T08:43:01.610Z,2.97
2023-05-05T08:46:04.212Z,3.22
2023-05-05T08:49:08.942Z,3.45
2023-05-05T08:52:13.453Z,3.25
2023-05-05T08:55:24.328Z,3.28
2023-05-05T08:58:28.831Z,3.50
2023-05-05T09:01:32.379Z,3.10
2023-05-05T09:04:34.810Z,3.30
2023-05-05T09:07:37.676Z,3.25
2023-05-05T09:10:43.155Z,3.30
2023-05-05T09:13:44.836Z,3.22
2023-05-05T09:16:46.582Z,3.03
2023-05-05T09:20:04.840Z,3.50
2023-05-05T09:23:15.685Z,3.42
2023-05-05T09:26:17.407Z,3.33
2023-05-05T09:29:20.756Z,2.80
2023-05-05T09:32:22.690Z,3.03
2023-05-05T09:35:25.783Z,2.95
2023-05-05T09:38:27.430Z,3.38
2023-05-05T09:41:43.600Z,3.30
2023-05-05T09:44:45.264Z,3.65
2023-05-05T09:47:47.961Z,2.72
2023-05-05T09:50:50.039Z,3.30
2023-05-05T09:53:51.707Z,3.25
2023-05-05T09:56:54.503Z,3.05
2023-05-05T09:59:57.911Z,2.75
2023-05-05T10:03:03.118Z,2.50
2023-05-05T10:06:07.737Z,2.50
2023-05-05T10:09:09.436Z,2.50
2023-05-05T10:12:11.606Z,2.35
2023-05-05T10:15:15.685Z,2.20
2023-05-05T10:18:28.337Z,2.80
2023-05-05T10:21:37.211Z,2.70
2023-05-05T10:24:55.817Z,2.20
2023-05-05T10:28:00.555Z,2.40
2023-05-05T10:31:16.415Z,2.38
2023-05-05T10:34:46.437Z,2.47
2023-05-05T10:37:49.200Z,2.40
2023-05-05T10:40:51.954Z,2.10
2023-05-05T10:43:59.960Z,2.80
2023-05-05T10:47:03.401Z,2.15
2023-05-05T10:50:26.611Z,2.30
2023-05-05T10:53:42.622Z,2.40
2023-05-05T10:56:44.446Z,2.15
2023-05-05T10:59:47.451Z,2.30
2023-05-05T11:02:49.432Z,2.30
2023-05-05T11:06:09.147Z,2.60
2023-05-05T11:09:29.941Z,2.60
2023-05-05T11:12:33.195Z,2.50
2023-05-05T11:15:37.973Z,2.30
2023-05-05T11:18:44.352Z,2.50
2023-05-05T11:22:02.016Z,2.47
2023-05-05T11:25:36.186Z,2.42
2023-05-05T11:29:10.229Z,2.50
2023-05-05T11:32:14.013Z,2.50
2023-05-05T11:35:16.305Z,2.88
2023-05-05T11:38:22.134Z,2.45
2023-05-05T11:41:32.944Z,2.70
2023-05-05T11:44:35.794Z,2.83
2023-05-05T11:47:37.587Z,2.72
2023-05-05T11:50:39.677Z,2.47
2023-05-05T11:53:46.554Z,2.60
2023-05-05T11:56:53.055Z,2.70
2023-05-05T11:59:55.683Z,3.70
2023-05-05T12:02:58.111Z,2.78
2023-05-05T12:05:59.919Z,2.83
2023-05-05T12:09:01.772Z,2.83
2023-05-05T12:12:03.796Z,2.60
2023-05-05T12:15:06.763Z,2.78
2023-05-05T12:18:18.790Z,2.50
2023-05-05T12:21:21.953Z,2.70
2023-05-05T12:24:23.858Z,2.72
2023-05-05T12:27:27.019Z,2.58
2023-05-05T12:30:28.780Z,2.70
2023-05-05T12:33:31.661Z,2.60
2023-05-05T12:36:34.696Z,2.50
2023-05-05T12:39:36.785Z,3.50
2023-05-05T12:42:39.463Z,2.88
2023-05-05T12:45:41.390Z,2.83
2023-05-05T12:48:48.304Z,3.20
2023-05-05T12:51:56.983Z,2.75
2023-05-05T12:54:59.932Z,2.92
2023-05-05T12:58:04.396Z,2.60
2023-05-05T13:01:10.544Z,2.83
2023-05-05T13:04:13.758Z,2.80
2023-05-05T13:07:17.882Z,2.90
2023-05-05T13:10:19.511Z,2.72
2023-05-05T13:13:21.120Z,2.60
2023-05-05T13:16:22.938Z,2.50
2023-05-05T13:19:25.175Z,2.60
2023-05-05T13:22:27.125Z,2.97
2023-05-05T13:25:28.790Z,2.78
2023-05-05T13:28:30.568Z,2.60
2023-05-05T13:31:32.305Z,2.83
2023-05-05T13:34:34.273Z,2.45
2023-05-05T13:37:36.055Z,3.10
2023-05-05T13:40:37.812Z,2.67
2023-05-05T13:43:39.469Z,2.58
2023-05-05T13:46:42.606Z,2.80
2023-05-05T13:49:44.270Z,2.95
2023-05-05T13:52:45.976Z,2.90
2023-05-05T13:55:47.725Z,3.00
2023-05-05T13:58:49.334Z,3.00
2023-05-05T14:01:50.947Z,3.03
2023-05-05T14:04:52.598Z,3.10
2023-05-05T14:07:57.164Z,3.15
2023-05-05T14:10:58.952Z,3.17
2023-05-05T14:14:00.699Z,3.05
2023-05-05T14:17:02.440Z,2.88
2023-05-05T14:20:04.672Z,2.97
2023-05-05T14:23:06.457Z,2.90
2023-05-05T14:26:09.117Z,2.95
2023-05-05T14:29:11.172Z,3.22
2023-05-05T14:32:12.828Z,3.35
2023-05-05T14:35:14.426Z,3.42
2023-05-05T14:38:16.164Z,3.28
2023-05-05T14:41:17.808Z,3.35
2023-05-05T14:44:19.385Z,3.63
2023-05-05T14:47:21.030Z,3.45
2023-05-05T14:50:22.756Z,2.85
2023-05-05T14:53:24.448Z,2.75
2023-05-05T14:56:26.538Z,3.22
2023-05-05T14:59:28.884Z,3.25
2023-05-05T15:02:31.095Z,3.38
2023-05-05T15:05:33.006Z,2.90
2023-05-05T15:08:34.930Z,3.20
2023-05-05T15:11:36.526Z,3.10
2023-05-05T15:14:38.254Z,3.13
2023-05-05T15:17:41.735Z,3.00
2023-05-05T15:20:43.561Z,3.13
2023-05-05T15:23:45.213Z,3.10
2023-05-05T15:26:46.943Z,3.20
2023-05-05T15:29:48.860Z,3.30
2023-05-05T15:32:50.579Z,3.20
2023-05-05T15:35:52.253Z,3.15
2023-05-05T15:38:54.096Z,3.08
2023-05-05T15:41:55.800Z,2.90
2023-05-05T15:44:59.171Z,3.00
2023-05-05T15:48:01.033Z,3.25
2023-05-05T15:51:02.781Z,4.10
2023-05-05T15:54:04.615Z,3.58
2023-05-05T15:57:06.323Z,3.50
2023-05-05T16:00:09.341Z,3.65
2023-05-05T16:03:12.385Z,3.10
2023-05-05T16:06:14.219Z,3.25
2023-05-05T16:09:16.239Z,3.40
2023-05-05T16:12:18.472Z,3.53
2023-05-05T16:15:20.453Z,3.88
2023-05-05T16:18:22.040Z,3.40
2023-05-05T16:21:23.680Z,3.30
2023-05-05T16:24:25.433Z,3.20
2023-05-05T16:27:27.126Z,3.30
2023-05-05T16:30:29.289Z,2.85
2023-05-05T16:33:31.315Z,2.83
2023-05-05T16:36:32.991Z,2.80
2023-05-05T16:39:40.009Z,3.15
2023-05-05T16:42:44.229Z,3.58
2023-05-05T16:45:46.681Z,3.78
2023-05-05T16:48:48.519Z,3.60
2023-05-05T16:51:52.553Z,3.45
2023-05-05T16:54:55.820Z,3.33
2023-05-05T16:57:57.474Z,3.22
2023-05-05T17:01:01.862Z,3.22
2023-05-05T17:04:03.592Z,3.45
2023-05-05T17:07:05.270Z,3.38
2023-05-05T17:10:07.645Z,3.60
2023-05-05T17:13:10.633Z,3.70
2023-05-05T17:16:12.290Z,3.37
2023-05-05T17:19:14.198Z,3.55
2023-05-05T17:22:16.240Z,3.38
2023-05-05T17:25:17.911Z,3.45
2023-05-05T17:28:19.708Z,3.65
2023-05-05T17:31:21.919Z,3.08
2023-05-05T17:34:23.578Z,2.92
2023-05-05T17:37:25.234Z,3.13
2023-05-05T17:40:26.942Z,3.00
2023-05-05T17:43:28.686Z,3.15
2023-05-05T17:46:30.471Z,3.38
2023-05-05T17:49:32.167Z,3.03
2023-05-05T17:52:33.821Z,3.10
2023-05-05T17:55:35.566Z,3.05
2023-05-05T17:58:37.620Z,3.00
2023-05-05T18:01:39.577Z,3.08
2023-05-05T18:04:41.343Z,2.85
2023-05-05T18:07:42.927Z,3.20
2023-05-05T18:10:44.578Z,3.20
2023-05-05T18:13:46.279Z,3.40
2023-05-05T18:16:49.931Z,3.00
2023-05-05T18:19:51.644Z,2.92
2023-05-05T18:22:53.238Z,2.63
2023-05-05T18:25:55.055Z,3.00
2023-05-05T18:28:56.988Z,2.67
2023-05-05T18:31:59.503Z,2.85
2023-05-05T18:35:01.265Z,2.97
2023-05-05T18:38:04.036Z,2.75
2023-05-05T18:41:05.693Z,2.72
2023-05-05T18:44:07.325Z,3.70
2023-05-05T18:47:09.129Z,3.38
2023-05-05T18:50:11.291Z,3.05
2023-05-05T18:53:14.749Z,2.85
2023-05-05T18:56:16.592Z,2.97
2023-05-05T18:59:18.148Z,2.97
2023-05-05T19:02:19.764Z,3.13
2023-05-05T19:05:21.601Z,3.08
2023-05-05T19:08:23.407Z,3.15
2023-05-05T19:11:25.255Z,3.80
2023-05-05T19:14:26.871Z,3.90
2023-05-05T19:17:28.537Z,3.47
2023-05-05T19:20:31.825Z,3.33
2023-05-05T19:23:33.651Z,3.22
2023-05-05T19:26:35.747Z,3.10
2023-05-05T19:29:37.394Z,3.53
2023-05-05T19:32:39.019Z,3.72
2023-05-05T19:35:40.643Z,3.40
2023-05-05T19:38:44.511Z,3.47
2023-05-05T19:41:46.565Z,3.42
2023-05-05T19:44:48.139Z,3.33
2023-05-05T19:47:49.782Z,3.25
2023-05-05T19:50:52.021Z,3.10
2023-05-05T19:53:53.582Z,3.25
2023-05-05T19:56:57.273Z,3.03
2023-05-05T20:00:02.532Z,3.03
2023-05-05T20:03:06.739Z,3.00
2023-05-05T20:06:08.435Z,2.58
2023-05-05T20:09:10.138Z,2.58
2023-05-05T20:12:12.312Z,2.45
2023-05-05T20:15:18.587Z,2.70
2023-05-05T20:18:20.256Z,2.10
2023-05-05T20:21:22.079Z,2.17
2023-05-05T20:24:23.729Z,2.28
2023-05-05T20:27:26.635Z,2.28
2023-05-05T20:30:29.723Z,2.42
2023-05-05T20:33:31.558Z,2.25
2023-05-05T20:36:33.264Z,2.50
2023-05-05T20:39:34.928Z,2.40
2023-05-05T20:42:37.066Z,2.20
2023-05-05T20:45:38.804Z,2.15
2023-05-05T20:48:42.785Z,2.15
2023-05-05T20:51:44.838Z,1.85
2023-05-05T20:54:46.428Z,2.08
2023-05-05T20:57:48.066Z,2.10
2023-05-05T21:00:50.456Z,1.70
2023-05-05T21:03:52.675Z,2.13
2023-05-05T21:06:54.351Z,2.05
2023-05-05T21:09:56.020Z,1.90
2023-05-05T21:12:57.715Z,1.55
2023-05-05T21:15:59.346Z,1.65
2023-05-05T21:19:00.976Z,1.70
2023-05-05T21:22:02.606Z,1.67
2023-05-05T21:25:16.018Z,1.80
2023-05-05T21:28:17.707Z,1.55
2023-05-05T21:31:22.138Z,1.75
2023-05-05T21:34:24.121Z,1.80
2023-05-05T21:37:26.057Z,1.80
2023-05-05T21:40:27.685Z,1.83
2023-05-05T21:43:29.512Z,1.90
2023-05-05T21:46:31.514Z,1.95
2023-05-05T21:49:33.317Z,1.70
2023-05-05T21:52:35.020Z,1.85
2023-05-05T21:55:36.580Z,1.70
2023-05-05T21:58:38.362Z,2.10
2023-05-05T22:01:41.161Z,2.15
2023-05-05T22:04:42.918Z,2.10
2023-05-05T22:07:44.919Z,1.90
2023-05-05T22:10:46.812Z,1.70
2023-05-05T22:13:48.381Z,1.95
2023-05-05T22:16:49.986Z,1.73
2023-05-05T22:19:51.614Z,1.83
2023-05-05T22:22:53.296Z,2.30
2023-05-05T22:25:55.324Z,2.00
2023-05-05T22:28:57.193Z,1.70
2023-05-05T22:31:58.769Z,1.88
2023-05-05T22:35:01.300Z,1.83
2023-05-05T22:38:03.197Z,1.80
2023-05-05T22:41:06.537Z,2.00
2023-05-05T22:44:08.178Z,2.08
2023-05-05T22:47:10.041Z,2.17
2023-05-05T22:50:11.743Z,2.08
2023-05-05T22:53:13.613Z,2.05
2023-05-05T22:56:15.461Z,1.85
2023-05-05T22:59:17.114Z,1.90
2023-05-05T23:02:18.781Z,2.00
2023-05-05T23:05:20.658Z,1.80
2023-05-05T23:08:24.029Z,2.00
2023-05-05T23:11:26.361Z,2.13
2023-05-05T23:14:28.153Z,2.38
2023-05-05T23:17:29.974Z,1.98
2023-05-05T23:20:31.728Z,2.05
2023-05-05T23:23:33.369Z,2.30
2023-05-05T23:26:35.071Z,2.10
2023-05-05T23:29:36.688Z,2.00
2023-05-05T23:32:38.267Z,1.90
2023-05-05T23:35:43.274Z,2.03
2023-05-05T23:38:45.622Z,1.70
2023-05-05T23:41:47.368Z,1.92
2023-05-05T23:44:49.054Z,2.00
2023-05-05T23:47:50.931Z,1.85
2023-05-05T23:50:52.711Z,1.90
2023-05-05T23:53:56.812Z,2.10
2023-05-05T23:57:00.304Z,1.95
